sensor_id;sensor_type;location;lat;lon;timestamp;temperature;humidity
68842;SHT35;55849;48.482;2.332;2023-07-13T00:01:52;23.44;41.22
68842;SHT35;55849;48.482;2.332;2023-07-13T00:04:55;23.38;41.34
68842;SHT35;55849;48.482;2.332;2023-07-13T00:07:57;23.34;41.47
68842;SHT35;55849;48.482;2.332;2023-07-13T00:10:58;23.30;41.73
68842;SHT35;55849;48.482;2.332;2023-07-13T00:14:00;23.24;41.76
68842;SHT35;55849;48.482;2.332;2023-07-13T00:17:02;23.20;41.79
68842;SHT35;55849;48.482;2.332;2023-07-13T00:20:06;23.16;41.96
68842;SHT35;55849;48.482;2.332;2023-07-13T00:23:08;23.10;42.10
68842;SHT35;55849;48.482;2.332;2023-07-13T00:26:11;23.05;42.24
68842;SHT35;55849;48.482;2.332;2023-07-13T00:29:13;23.00;42.16
68842;SHT35;55849;48.482;2.332;2023-07-13T00:32:16;22.95;42.19
68842;SHT35;55849;48.482;2.332;2023-07-13T00:35:19;22.89;42.35
68842;SHT35;55849;48.482;2.332;2023-07-13T00:38:21;22.84;42.56
68842;SHT35;55849;48.482;2.332;2023-07-13T00:41:22;22.82;42.83
68842;SHT35;55849;48.482;2.332;2023-07-13T00:44:24;22.73;42.73
68842;SHT35;55849;48.482;2.332;2023-07-13T00:47:26;22.71;43.20
68842;SHT35;55849;48.482;2.332;2023-07-13T00:50:29;22.67;43.44
68842;SHT35;55849;48.482;2.332;2023-07-13T00:53:32;22.64;43.82
68842;SHT35;55849;48.482;2.332;2023-07-13T00:56:35;22.65;44.10
68842;SHT35;55849;48.482;2.332;2023-07-13T00:59:40;22.67;44.04
68842;SHT35;55849;48.482;2.332;2023-07-13T01:02:45;22.67;43.98
68842;SHT35;55849;48.482;2.332;2023-07-13T01:05:49;22.68;44.07
68842;SHT35;55849;48.482;2.332;2023-07-13T01:08:51;22.69;44.20
68842;SHT35;55849;48.482;2.332;2023-07-13T01:11:53;22.69;44.29
68842;SHT35;55849;48.482;2.332;2023-07-13T01:14:59;22.71;44.39
68842;SHT35;55849;48.482;2.332;2023-07-13T01:18:02;22.75;44.44
68842;SHT35;55849;48.482;2.332;2023-07-13T01:21:06;22.76;44.58
68842;SHT35;55849;48.482;2.332;2023-07-13T01:24:08;22.76;44.79
68842;SHT35;55849;48.482;2.332;2023-07-13T01:27:11;22.78;45.09
68842;SHT35;55849;48.482;2.332;2023-07-13T01:30:13;22.78;44.68
68842;SHT35;55849;48.482;2.332;2023-07-13T01:33:17;22.71;44.78
68842;SHT35;55849;48.482;2.332;2023-07-13T01:36:20;22.71;44.76
68842;SHT35;55849;48.482;2.332;2023-07-13T01:39:23;22.71;44.89
68842;SHT35;55849;48.482;2.332;2023-07-13T01:42:25;22.72;44.98
68842;SHT35;55849;48.482;2.332;2023-07-13T01:45:26;22.71;45.01
68842;SHT35;55849;48.482;2.332;2023-07-13T01:48:28;22.71;45.05
68842;SHT35;55849;48.482;2.332;2023-07-13T01:51:31;22.69;45.04
68842;SHT35;55849;48.482;2.332;2023-07-13T01:54:32;22.69;45.10
68842;SHT35;55849;48.482;2.332;2023-07-13T01:57:34;22.68;45.12
68842;SHT35;55849;48.482;2.332;2023-07-13T02:00:36;22.64;45.39
68842;SHT35;55849;48.482;2.332;2023-07-13T02:03:37;22.64;45.47
68842;SHT35;55849;48.482;2.332;2023-07-13T02:06:40;22.62;45.54
68842;SHT35;55849;48.482;2.332;2023-07-13T02:09:42;22.62;45.74
68842;SHT35;55849;48.482;2.332;2023-07-13T02:12:44;22.62;45.49
68842;SHT35;55849;48.482;2.332;2023-07-13T02:15:45;22.61;45.59
68842;SHT35;55849;48.482;2.332;2023-07-13T02:18:47;22.58;45.89
68842;SHT35;55849;48.482;2.332;2023-07-13T02:21:52;22.57;45.95
68842;SHT35;55849;48.482;2.332;2023-07-13T02:24:54;22.55;45.99
68842;SHT35;55849;48.482;2.332;2023-07-13T02:27:56;22.54;46.09
68842;SHT35;55849;48.482;2.332;2023-07-13T02:31:04;22.53;46.37
68842;SHT35;55849;48.482;2.332;2023-07-13T02:34:06;22.51;46.57
68842;SHT35;55849;48.482;2.332;2023-07-13T02:37:09;22.54;46.45
68842;SHT35;55849;48.482;2.332;2023-07-13T02:40:10;22.51;46.56
68842;SHT35;55849;48.482;2.332;2023-07-13T02:43:12;22.53;46.68
68842;SHT35;55849;48.482;2.332;2023-07-13T02:46:14;22.53;46.60
68842;SHT35;55849;48.482;2.332;2023-07-13T02:49:15;22.51;46.61
68842;SHT35;55849;48.482;2.332;2023-07-13T02:52:19;22.50;46.61
68842;SHT35;55849;48.482;2.332;2023-07-13T02:55:21;22.51;46.70
68842;SHT35;55849;48.482;2.332;2023-07-13T02:58:23;22.50;46.69
68842;SHT35;55849;48.482;2.332;2023-07-13T03:01:25;22.48;46.72
68842;SHT35;55849;48.482;2.332;2023-07-13T03:04:26;22.45;46.69
68842;SHT35;55849;48.482;2.332;2023-07-13T03:07:29;22.41;46.84
68842;SHT35;55849;48.482;2.332;2023-07-13T03:10:31;22.41;46.78
68842;SHT35;55849;48.482;2.332;2023-07-13T03:13:33;22.43;46.60
68842;SHT35;55849;48.482;2.332;2023-07-13T03:16:34;22.44;46.70
68842;SHT35;55849;48.482;2.332;2023-07-13T03:19:36;22.43;46.94
68842;SHT35;55849;48.482;2.332;2023-07-13T03:22:39;22.40;47.00
68842;SHT35;55849;48.482;2.332;2023-07-13T03:25:42;22.43;47.18
68842;SHT35;55849;48.482;2.332;2023-07-13T03:28:45;22.41;46.96
68842;SHT35;55849;48.482;2.332;2023-07-13T03:31:47;22.41;46.84
68842;SHT35;55849;48.482;2.332;2023-07-13T03:34:48;22.40;47.12
68842;SHT35;55849;48.482;2.332;2023-07-13T03:37:51;22.40;47.29
68842;SHT35;55849;48.482;2.332;2023-07-13T03:40:53;22.39;47.21
68842;SHT35;55849;48.482;2.332;2023-07-13T03:43:54;22.39;47.35
68842;SHT35;55849;48.482;2.332;2023-07-13T03:46:56;22.37;47.60
68842;SHT35;55849;48.482;2.332;2023-07-13T03:49:58;22.36;47.62
68842;SHT35;55849;48.482;2.332;2023-07-13T03:53:01;22.36;47.63
68842;SHT35;55849;48.482;2.332;2023-07-13T03:56:03;22.36;47.93
68842;SHT35;55849;48.482;2.332;2023-07-13T03:59:04;22.30;48.03
68842;SHT35;55849;48.482;2.332;2023-07-13T04:02:06;22.29;48.08
68842;SHT35;55849;48.482;2.332;2023-07-13T04:05:07;22.27;48.30
68842;SHT35;55849;48.482;2.332;2023-07-13T04:08:10;22.20;48.67
68842;SHT35;55849;48.482;2.332;2023-07-13T04:11:12;22.21;48.46
68842;SHT35;55849;48.482;2.332;2023-07-13T04:14:14;22.17;48.37
68842;SHT35;55849;48.482;2.332;2023-07-13T04:17:15;22.13;48.60
68842;SHT35;55849;48.482;2.332;2023-07-13T04:20:17;22.14;48.94
68842;SHT35;55849;48.482;2.332;2023-07-13T04:23:22;22.09;49.14
68842;SHT35;55849;48.482;2.332;2023-07-13T04:26:23;22.08;49.26
68842;SHT35;55849;48.482;2.332;2023-07-13T04:29:25;22.06;49.45
68842;SHT35;55849;48.482;2.332;2023-07-13T04:32:26;22.06;49.66
68842;SHT35;55849;48.482;2.332;2023-07-13T04:35:28;22.06;49.56
68842;SHT35;55849;48.482;2.332;2023-07-13T04:38:32;22.03;49.69
68842;SHT35;55849;48.482;2.332;2023-07-13T04:41:33;22.01;49.65
68842;SHT35;55849;48.482;2.332;2023-07-13T04:44:35;21.99;49.93
68842;SHT35;55849;48.482;2.332;2023-07-13T04:47:39;21.95;49.90
68842;SHT35;55849;48.482;2.332;2023-07-13T04:50:41;21.95;50.03
68842;SHT35;55849;48.482;2.332;2023-07-13T04:53:45;21.92;50.17
68842;SHT35;55849;48.482;2.332;2023-07-13T04:56:46;21.93;50.30
68842;SHT35;55849;48.482;2.332;2023-07-13T04:59:48;21.93;50.66
68842;SHT35;55849;48.482;2.332;2023-07-13T05:02:50;21.93;50.73
68842;SHT35;55849;48.482;2.332;2023-07-13T05:05:56;21.95;50.66
68842;SHT35;55849;48.482;2.332;2023-07-13T05:08:59;21.95;50.65
68842;SHT35;55849;48.482;2.332;2023-07-13T05:12:00;21.95;50.96
68842;SHT35;55849;48.482;2.332;2023-07-13T05:15:03;21.95;50.30
68842;SHT35;55849;48.482;2.332;2023-07-13T05:18:04;21.96;50.01
68842;SHT35;55849;48.482;2.332;2023-07-13T05:21:09;21.99;49.77
68842;SHT35;55849;48.482;2.332;2023-07-13T05:24:12;21.98;49.56
68842;SHT35;55849;48.482;2.332;2023-07-13T05:27:14;21.99;49.60
68842;SHT35;55849;48.482;2.332;2023-07-13T05:30:15;21.98;49.92
68842;SHT35;55849;48.482;2.332;2023-07-13T05:33:17;21.99;50.17
68842;SHT35;55849;48.482;2.332;2023-07-13T05:36:19;22.02;50.25
68842;SHT35;55849;48.482;2.332;2023-07-13T05:39:22;22.02;49.92
68842;SHT35;55849;48.482;2.332;2023-07-13T05:42:23;22.02;50.17
68842;SHT35;55849;48.482;2.332;2023-07-13T05:45:26;22.05;50.20
68842;SHT35;55849;48.482;2.332;2023-07-13T05:48:28;22.05;50.56
68842;SHT35;55849;48.482;2.332;2023-07-13T05:51:29;22.06;50.94
68842;SHT35;55849;48.482;2.332;2023-07-13T05:54:32;22.09;50.86
68842;SHT35;55849;48.482;2.332;2023-07-13T05:57:34;22.08;50.85
68842;SHT35;55849;48.482;2.332;2023-07-13T06:00:35;22.09;50.91
68842;SHT35;55849;48.482;2.332;2023-07-13T06:03:37;22.09;51.16
68842;SHT35;55849;48.482;2.332;2023-07-13T06:06:39;22.08;51.24
68842;SHT35;55849;48.482;2.332;2023-07-13T06:09:42;22.06;51.46
68842;SHT35;55849;48.482;2.332;2023-07-13T06:12:43;22.06;51.64
68842;SHT35;55849;48.482;2.332;2023-07-13T06:15:48;22.06;51.72
68842;SHT35;55849;48.482;2.332;2023-07-13T06:18:49;22.02;51.76
68842;SHT35;55849;48.482;2.332;2023-07-13T06:21:51;22.06;51.92
68842;SHT35;55849;48.482;2.332;2023-07-13T06:24:54;22.03;52.30
68842;SHT35;55849;48.482;2.332;2023-07-13T06:27:55;22.03;52.40
68842;SHT35;55849;48.482;2.332;2023-07-13T06:30:57;22.06;52.36
68842;SHT35;55849;48.482;2.332;2023-07-13T06:33:59;22.08;52.59
68842;SHT35;55849;48.482;2.332;2023-07-13T06:37:00;22.08;52.40
68842;SHT35;55849;48.482;2.332;2023-07-13T06:40:06;22.12;52.29
68842;SHT35;55849;48.482;2.332;2023-07-13T06:43:07;22.12;52.63
68842;SHT35;55849;48.482;2.332;2023-07-13T06:46:09;22.14;53.00
68842;SHT35;55849;48.482;2.332;2023-07-13T06:49:11;22.17;52.58
68842;SHT35;55849;48.482;2.332;2023-07-13T06:52:13;22.20;52.67
68842;SHT35;55849;48.482;2.332;2023-07-13T06:55:16;22.24;52.81
68842;SHT35;55849;48.482;2.332;2023-07-13T06:58:18;22.30;53.02
68842;SHT35;55849;48.482;2.332;2023-07-13T07:01:20;22.30;52.92
68842;SHT35;55849;48.482;2.332;2023-07-13T07:04:22;22.33;52.74
68842;SHT35;55849;48.482;2.332;2023-07-13T07:07:24;22.37;52.54
68842;SHT35;55849;48.482;2.332;2023-07-13T07:10:31;22.40;52.48
68842;SHT35;55849;48.482;2.332;2023-07-13T07:13:33;22.40;52.38
68842;SHT35;55849;48.482;2.332;2023-07-13T07:16:34;22.40;52.39
68842;SHT35;55849;48.482;2.332;2023-07-13T07:19:37;22.41;52.48
68842;SHT35;55849;48.482;2.332;2023-07-13T07:22:38;22.43;52.90
68842;SHT35;55849;48.482;2.332;2023-07-13T07:25:43;22.48;52.53
68842;SHT35;55849;48.482;2.332;2023-07-13T07:28:44;22.48;52.20
68842;SHT35;55849;48.482;2.332;2023-07-13T07:31:46;22.51;52.28
68842;SHT35;55849;48.482;2.332;2023-07-13T07:34:47;22.53;52.21
68842;SHT35;55849;48.482;2.332;2023-07-13T07:37:49;22.54;52.63
68842;SHT35;55849;48.482;2.332;2023-07-13T07:40:52;22.54;52.77
68842;SHT35;55849;48.482;2.332;2023-07-13T07:43:54;22.58;52.71
68842;SHT35;55849;48.482;2.332;2023-07-13T07:46:55;22.60;52.73
68842;SHT35;55849;48.482;2.332;2023-07-13T07:49:57;22.61;52.60
68842;SHT35;55849;48.482;2.332;2023-07-13T07:52:58;22.64;52.80
68842;SHT35;55849;48.482;2.332;2023-07-13T07:56:03;22.68;52.67
68842;SHT35;55849;48.482;2.332;2023-07-13T07:59:05;22.76;53.33
68842;SHT35;55849;48.482;2.332;2023-07-13T08:02:08;22.79;52.76
68842;SHT35;55849;48.482;2.332;2023-07-13T08:05:11;22.85;52.70
68842;SHT35;55849;48.482;2.332;2023-07-13T08:08:12;22.86;52.86
68842;SHT35;55849;48.482;2.332;2023-07-13T08:11:16;22.92;51.56
68842;SHT35;55849;48.482;2.332;2023-07-13T08:14:18;22.91;51.59
68842;SHT35;55849;48.482;2.332;2023-07-13T08:17:20;22.91;51.73
68842;SHT35;55849;48.482;2.332;2023-07-13T08:20:22;22.95;51.55
68842;SHT35;55849;48.482;2.332;2023-07-13T08:23:24;22.94;51.56
68842;SHT35;55849;48.482;2.332;2023-07-13T08:26:26;22.98;50.98
68842;SHT35;55849;48.482;2.332;2023-07-13T08:29:28;22.94;51.23
68842;SHT35;55849;48.482;2.332;2023-07-13T08:32:32;23.00;51.06
68842;SHT35;55849;48.482;2.332;2023-07-13T08:35:34;23.03;51.14
68842;SHT35;55849;48.482;2.332;2023-07-13T08:38:36;23.10;51.47
68842;SHT35;55849;48.482;2.332;2023-07-13T08:41:39;23.14;50.68
68842;SHT35;55849;48.482;2.332;2023-07-13T08:44:49;23.19;50.48
68842;SHT35;55849;48.482;2.332;2023-07-13T08:47:57;23.21;49.60
68842;SHT35;55849;48.482;2.332;2023-07-13T08:51:12;23.26;49.07
68842;SHT35;55849;48.482;2.332;2023-07-13T08:54:23;23.30;49.36
68842;SHT35;55849;48.482;2.332;2023-07-13T08:57:33;23.37;49.03
68842;SHT35;55849;48.482;2.332;2023-07-13T09:00:43;23.38;49.43
68842;SHT35;55849;48.482;2.332;2023-07-13T09:04:05;23.44;49.21
68842;SHT35;55849;48.482;2.332;2023-07-13T09:07:14;23.53;49.17
68842;SHT35;55849;48.482;2.332;2023-07-13T09:10:21;23.57;48.59
68842;SHT35;55849;48.482;2.332;2023-07-13T09:13:33;23.62;48.60
68842;SHT35;55849;48.482;2.332;2023-07-13T09:16:37;23.65;48.32
68842;SHT35;55849;48.482;2.332;2023-07-13T09:19:41;23.72;49.56
68842;SHT35;55849;48.482;2.332;2023-07-13T09:22:43;23.78;47.67
68842;SHT35;55849;48.482;2.332;2023-07-13T09:25:46;23.85;48.36
68842;SHT35;55849;48.482;2.332;2023-07-13T09:28:57;23.88;47.71
68842;SHT35;55849;48.482;2.332;2023-07-13T09:32:04;23.90;47.27
68842;SHT35;55849;48.482;2.332;2023-07-13T09:35:11;23.93;47.21
68842;SHT35;55849;48.482;2.332;2023-07-13T09:38:14;23.93;46.32
68842;SHT35;55849;48.482;2.332;2023-07-13T09:41:26;24.00;46.60
68842;SHT35;55849;48.482;2.332;2023-07-13T09:44:33;24.02;46.38
68842;SHT35;55849;48.482;2.332;2023-07-13T09:47:39;24.09;46.64
68842;SHT35;55849;48.482;2.332;2023-07-13T09:50:41;24.12;45.94
68842;SHT35;55849;48.482;2.332;2023-07-13T09:53:43;24.14;45.24
68842;SHT35;55849;48.482;2.332;2023-07-13T09:56:45;24.18;45.06
68842;SHT35;55849;48.482;2.332;2023-07-13T09:59:50;24.24;44.75
68842;SHT35;55849;48.482;2.332;2023-07-13T10:03:01;24.24;44.68
68842;SHT35;55849;48.482;2.332;2023-07-13T10:06:13;24.31;44.92
68842;SHT35;55849;48.482;2.332;2023-07-13T10:09:16;24.37;44.55
68842;SHT35;55849;48.482;2.332;2023-07-13T10:12:19;24.41;44.44
68842;SHT35;55849;48.482;2.332;2023-07-13T10:15:24;24.45;43.92
68842;SHT35;55849;48.482;2.332;2023-07-13T10:18:28;24.44;43.66
68842;SHT35;55849;48.482;2.332;2023-07-13T10:21:35;24.45;43.58
68842;SHT35;55849;48.482;2.332;2023-07-13T10:24:39;24.42;43.22
68842;SHT35;55849;48.482;2.332;2023-07-13T10:27:41;24.41;43.07
68842;SHT35;55849;48.482;2.332;2023-07-13T10:30:46;24.38;43.29
68842;SHT35;55849;48.482;2.332;2023-07-13T10:33:48;24.37;43.49
68842;SHT35;55849;48.482;2.332;2023-07-13T10:36:51;24.38;43.91
68842;SHT35;55849;48.482;2.332;2023-07-13T10:39:55;24.41;44.19
68842;SHT35;55849;48.482;2.332;2023-07-13T10:42:59;24.40;43.87
68842;SHT35;55849;48.482;2.332;2023-07-13T10:46:06;24.42;44.01
68842;SHT35;55849;48.482;2.332;2023-07-13T10:49:11;24.47;44.14
68842;SHT35;55849;48.482;2.332;2023-07-13T10:52:41;24.54;44.02
68842;SHT35;55849;48.482;2.332;2023-07-13T10:55:57;24.58;43.77
68842;SHT35;55849;48.482;2.332;2023-07-13T10:59:09;24.64;43.54
68842;SHT35;55849;48.482;2.332;2023-07-13T11:02:22;24.72;44.73
68842;SHT35;55849;48.482;2.332;2023-07-13T11:05:28;24.79;43.60
68842;SHT35;55849;48.482;2.332;2023-07-13T11:08:34;24.85;43.42
68842;SHT35;55849;48.482;2.332;2023-07-13T11:11:38;24.89;43.57
68842;SHT35;55849;48.482;2.332;2023-07-13T11:14:43;24.96;43.28
68842;SHT35;55849;48.482;2.332;2023-07-13T11:17:49;24.94;42.01
68842;SHT35;55849;48.482;2.332;2023-07-13T11:20:51;24.99;41.85
68842;SHT35;55849;48.482;2.332;2023-07-13T11:24:01;24.96;41.48
68842;SHT35;55849;48.482;2.332;2023-07-13T11:27:22;24.99;41.72
68842;SHT35;55849;48.482;2.332;2023-07-13T11:30:32;25.00;40.55
68842;SHT35;55849;48.482;2.332;2023-07-13T11:33:57;25.02;40.76
68842;SHT35;55849;48.482;2.332;2023-07-13T11:37:00;25.03;41.24
68842;SHT35;55849;48.482;2.332;2023-07-13T11:40:03;25.10;40.66
68842;SHT35;55849;48.482;2.332;2023-07-13T11:43:06;25.14;40.10
68842;SHT35;55849;48.482;2.332;2023-07-13T11:46:15;25.21;40.16
68842;SHT35;55849;48.482;2.332;2023-07-13T11:49:20;25.26;40.18
68842;SHT35;55849;48.482;2.332;2023-07-13T11:52:23;25.37;40.84
68842;SHT35;55849;48.482;2.332;2023-07-13T11:55:28;25.39;40.16
68842;SHT35;55849;48.482;2.332;2023-07-13T11:58:30;25.38;40.55
68842;SHT35;55849;48.482;2.332;2023-07-13T12:01:32;25.46;41.26
68842;SHT35;55849;48.482;2.332;2023-07-13T12:04:36;25.52;40.76
68842;SHT35;55849;48.482;2.332;2023-07-13T12:07:39;25.58;40.98
68842;SHT35;55849;48.482;2.332;2023-07-13T12:10:41;25.63;40.97
68842;SHT35;55849;48.482;2.332;2023-07-13T12:13:43;25.72;40.94
68842;SHT35;55849;48.482;2.332;2023-07-13T12:16:46;25.80;40.81
68842;SHT35;55849;48.482;2.332;2023-07-13T12:19:51;25.92;40.81
68842;SHT35;55849;48.482;2.332;2023-07-13T12:22:53;26.04;39.70
68842;SHT35;55849;48.482;2.332;2023-07-13T12:25:55;26.17;39.33
68842;SHT35;55849;48.482;2.332;2023-07-13T12:29:00;26.27;39.29
68842;SHT35;55849;48.482;2.332;2023-07-13T12:32:08;26.34;38.52
68842;SHT35;55849;48.482;2.332;2023-07-13T12:35:16;26.38;39.15
68842;SHT35;55849;48.482;2.332;2023-07-13T12:38:19;26.37;39.33
68842;SHT35;55849;48.482;2.332;2023-07-13T12:41:21;26.39;39.57
68842;SHT35;55849;48.482;2.332;2023-07-13T12:44:27;26.42;39.25
68842;SHT35;55849;48.482;2.332;2023-07-13T12:47:30;26.46;39.51
68842;SHT35;55849;48.482;2.332;2023-07-13T12:50:39;26.53;39.34
68842;SHT35;55849;48.482;2.332;2023-07-13T12:53:48;26.57;39.15
68842;SHT35;55849;48.482;2.332;2023-07-13T12:56:53;26.68;38.66
68842;SHT35;55849;48.482;2.332;2023-07-13T12:59:57;26.72;38.93
68842;SHT35;55849;48.482;2.332;2023-07-13T13:03:05;26.79;39.17
68842;SHT35;55849;48.482;2.332;2023-07-13T13:06:21;26.87;38.68
68842;SHT35;55849;48.482;2.332;2023-07-13T13:09:23;26.90;38.25
68842;SHT35;55849;48.482;2.332;2023-07-13T13:12:25;26.96;38.84
68842;SHT35;55849;48.482;2.332;2023-07-13T13:15:27;27.00;38.83
68842;SHT35;55849;48.482;2.332;2023-07-13T13:18:30;27.05;38.56
68842;SHT35;55849;48.482;2.332;2023-07-13T13:21:33;27.16;38.27
68842;SHT35;55849;48.482;2.332;2023-07-13T13:24:35;27.24;37.76
68842;SHT35;55849;48.482;2.332;2023-07-13T13:27:36;27.27;37.47
68842;SHT35;55849;48.482;2.332;2023-07-13T13:30:38;27.30;37.88
68842;SHT35;55849;48.482;2.332;2023-07-13T13:33:42;27.30;37.87
68842;SHT35;55849;48.482;2.332;2023-07-13T13:36:47;27.31;37.56
68842;SHT35;55849;48.482;2.332;2023-07-13T13:39:49;27.34;37.16
68842;SHT35;55849;48.482;2.332;2023-07-13T13:42:51;27.34;37.97
68842;SHT35;55849;48.482;2.332;2023-07-13T13:45:56;27.35;37.90
68842;SHT35;55849;48.482;2.332;2023-07-13T13:48:58;27.38;37.12
68842;SHT35;55849;48.482;2.332;2023-07-13T13:52:01;27.46;36.91
68842;SHT35;55849;48.482;2.332;2023-07-13T13:55:05;27.52;36.71
68842;SHT35;55849;48.482;2.332;2023-07-13T13:58:12;27.57;36.22
68842;SHT35;55849;48.482;2.332;2023-07-13T14:01:17;27.60;36.78
68842;SHT35;55849;48.482;2.332;2023-07-13T14:04:21;27.71;36.72
68842;SHT35;55849;48.482;2.332;2023-07-13T14:07:25;27.89;36.49
68842;SHT35;55849;48.482;2.332;2023-07-13T14:10:27;27.98;36.54
68842;SHT35;55849;48.482;2.332;2023-07-13T14:13:34;28.08;36.43
68842;SHT35;55849;48.482;2.332;2023-07-13T14:16:36;28.24;35.96
68842;SHT35;55849;48.482;2.332;2023-07-13T14:19:38;28.50;36.05
68842;SHT35;55849;48.482;2.332;2023-07-13T14:22:42;28.74;36.42
68842;SHT35;55849;48.482;2.332;2023-07-13T14:25:45;29.08;35.08
68842;SHT35;55849;48.482;2.332;2023-07-13T14:28:49;29.29;35.00
68842;SHT35;55849;48.482;2.332;2023-07-13T14:31:51;29.52;34.12
68842;SHT35;55849;48.482;2.332;2023-07-13T14:34:53;29.69;33.84
68842;SHT35;55849;48.482;2.332;2023-07-13T14:37:56;29.74;32.78
68842;SHT35;55849;48.482;2.332;2023-07-13T14:40:58;29.73;32.73
68842;SHT35;55849;48.482;2.332;2023-07-13T14:43:59;29.67;32.83
68842;SHT35;55849;48.482;2.332;2023-07-13T14:47:03;29.62;33.03
68842;SHT35;55849;48.482;2.332;2023-07-13T14:50:12;29.64;32.97
68842;SHT35;55849;48.482;2.332;2023-07-13T14:53:16;29.66;33.20
68842;SHT35;55849;48.482;2.332;2023-07-13T14:56:17;29.62;32.77
68842;SHT35;55849;48.482;2.332;2023-07-13T14:59:19;29.57;33.21
68842;SHT35;55849;48.482;2.332;2023-07-13T15:02:27;29.50;32.82
68842;SHT35;55849;48.482;2.332;2023-07-13T15:05:31;29.53;33.35
68842;SHT35;55849;48.482;2.332;2023-07-13T15:08:34;29.49;32.40
68842;SHT35;55849;48.482;2.332;2023-07-13T15:11:36;29.45;32.75
68842;SHT35;55849;48.482;2.332;2023-07-13T15:14:37;29.43;33.17
68842;SHT35;55849;48.482;2.332;2023-07-13T15:17:40;29.37;32.75
68842;SHT35;55849;48.482;2.332;2023-07-13T15:20:44;29.35;32.91
68842;SHT35;55849;48.482;2.332;2023-07-13T15:23:48;29.29;32.71
68842;SHT35;55849;48.482;2.332;2023-07-13T15:26:49;29.29;33.36
68842;SHT35;55849;48.482;2.332;2023-07-13T15:29:51;29.43;33.25
68842;SHT35;55849;48.482;2.332;2023-07-13T15:32:53;29.54;32.55
68842;SHT35;55849;48.482;2.332;2023-07-13T15:35:55;29.60;32.46
68842;SHT35;55849;48.482;2.332;2023-07-13T15:39:00;29.63;32.58
68842;SHT35;55849;48.482;2.332;2023-07-13T15:42:02;29.76;32.10
68842;SHT35;55849;48.482;2.332;2023-07-13T15:45:04;29.88;32.05
68842;SHT35;55849;48.482;2.332;2023-07-13T15:48:13;29.92;32.02
68842;SHT35;55849;48.482;2.332;2023-07-13T15:51:24;29.94;31.62
68842;SHT35;55849;48.482;2.332;2023-07-13T15:54:27;29.94;32.30
68842;SHT35;55849;48.482;2.332;2023-07-13T15:57:29;30.06;31.60
68842;SHT35;55849;48.482;2.332;2023-07-13T16:00:30;30.21;30.44
68842;SHT35;55849;48.482;2.332;2023-07-13T16:03:32;30.26;30.24
68842;SHT35;55849;48.482;2.332;2023-07-13T16:06:36;30.22;30.57
68842;SHT35;55849;48.482;2.332;2023-07-13T16:09:41;30.19;30.33
68842;SHT35;55849;48.482;2.332;2023-07-13T16:12:43;30.09;30.59
68842;SHT35;55849;48.482;2.332;2023-07-13T16:15:45;30.00;30.44
68842;SHT35;55849;48.482;2.332;2023-07-13T16:18:46;29.88;30.93
68842;SHT35;55849;48.482;2.332;2023-07-13T16:21:50;29.81;31.17
68842;SHT35;55849;48.482;2.332;2023-07-13T16:24:53;29.76;31.33
68842;SHT35;55849;48.482;2.332;2023-07-13T16:27:58;29.73;31.22
68842;SHT35;55849;48.482;2.332;2023-07-13T16:31:00;29.71;31.39
68842;SHT35;55849;48.482;2.332;2023-07-13T16:34:02;29.66;30.89
68842;SHT35;55849;48.482;2.332;2023-07-13T16:37:14;29.59;30.94
68842;SHT35;55849;48.482;2.332;2023-07-13T16:40:22;29.49;30.88
68842;SHT35;55849;48.482;2.332;2023-07-13T16:43:24;29.43;31.09
68842;SHT35;55849;48.482;2.332;2023-07-13T16:46:26;29.33;31.44
68842;SHT35;55849;48.482;2.332;2023-07-13T16:49:29;29.30;31.42
68842;SHT35;55849;48.482;2.332;2023-07-13T16:52:31;29.28;31.48
68842;SHT35;55849;48.482;2.332;2023-07-13T16:55:34;29.22;31.18
68842;SHT35;55849;48.482;2.332;2023-07-13T16:58:36;29.18;31.38
68842;SHT35;55849;48.482;2.332;2023-07-13T17:01:38;29.22;32.01
68842;SHT35;55849;48.482;2.332;2023-07-13T17:04:39;29.29;31.68
68842;SHT35;55849;48.482;2.332;2023-07-13T17:07:41;29.32;31.34
68842;SHT35;55849;48.482;2.332;2023-07-13T17:10:47;29.26;31.14
68842;SHT35;55849;48.482;2.332;2023-07-13T17:13:49;29.21;31.56
68842;SHT35;55849;48.482;2.332;2023-07-13T17:16:53;29.14;32.43
68842;SHT35;55849;48.482;2.332;2023-07-13T17:19:56;29.08;32.11
68842;SHT35;55849;48.482;2.332;2023-07-13T17:22:59;29.01;32.06
68842;SHT35;55849;48.482;2.332;2023-07-13T17:26:02;28.95;32.10
68842;SHT35;55849;48.482;2.332;2023-07-13T17:29:04;28.87;32.55
68842;SHT35;55849;48.482;2.332;2023-07-13T17:32:13;28.86;32.49
68842;SHT35;55849;48.482;2.332;2023-07-13T17:35:21;28.81;32.35
68842;SHT35;55849;48.482;2.332;2023-07-13T17:38:30;28.77;32.59
68842;SHT35;55849;48.482;2.332;2023-07-13T17:41:33;28.74;32.73
68842;SHT35;55849;48.482;2.332;2023-07-13T17:44:34;28.74;32.77
68842;SHT35;55849;48.482;2.332;2023-07-13T17:47:36;28.70;33.12
68842;SHT35;55849;48.482;2.332;2023-07-13T17:50:40;28.71;33.06
68842;SHT35;55849;48.482;2.332;2023-07-13T17:53:44;28.73;33.37
68842;SHT35;55849;48.482;2.332;2023-07-13T17:56:47;28.70;33.18
68842;SHT35;55849;48.482;2.332;2023-07-13T17:59:49;28.67;33.44
68842;SHT35;55849;48.482;2.332;2023-07-13T18:02:50;28.66;34.03
68842;SHT35;55849;48.482;2.332;2023-07-13T18:05:52;28.63;33.85
68842;SHT35;55849;48.482;2.332;2023-07-13T18:08:56;28.57;33.65
68842;SHT35;55849;48.482;2.332;2023-07-13T18:12:00;28.52;33.54
68842;SHT35;55849;48.482;2.332;2023-07-13T18:15:02;28.43;33.87
68842;SHT35;55849;48.482;2.332;2023-07-13T18:18:04;28.38;34.30
68842;SHT35;55849;48.482;2.332;2023-07-13T18:21:07;28.35;34.33
68842;SHT35;55849;48.482;2.332;2023-07-13T18:24:09;28.29;34.62
68842;SHT35;55849;48.482;2.332;2023-07-13T18:27:13;28.26;34.58
68842;SHT35;55849;48.482;2.332;2023-07-13T18:30:17;28.17;34.50
68842;SHT35;55849;48.482;2.332;2023-07-13T18:33:22;28.09;34.50
68842;SHT35;55849;48.482;2.332;2023-07-13T18:36:25;28.04;34.60
68842;SHT35;55849;48.482;2.332;2023-07-13T18:39:26;27.97;34.92
68842;SHT35;55849;48.482;2.332;2023-07-13T18:42:29;27.93;34.76
68842;SHT35;55849;48.482;2.332;2023-07-13T18:45:32;27.87;34.95
68842;SHT35;55849;48.482;2.332;2023-07-13T18:48:34;27.83;35.06
68842;SHT35;55849;48.482;2.332;2023-07-13T18:51:35;27.79;35.45
68842;SHT35;55849;48.482;2.332;2023-07-13T18:54:37;27.74;35.29
68842;SHT35;55849;48.482;2.332;2023-07-13T18:57:41;27.71;35.45
68842;SHT35;55849;48.482;2.332;2023-07-13T19:00:43;27.66;35.63
68842;SHT35;55849;48.482;2.332;2023-07-13T19:03:44;27.59;36.19
68842;SHT35;55849;48.482;2.332;2023-07-13T19:06:47;27.56;35.78
68842;SHT35;55849;48.482;2.332;2023-07-13T19:09:48;27.52;35.71
68842;SHT35;55849;48.482;2.332;2023-07-13T19:12:59;27.46;36.27
68842;SHT35;55849;48.482;2.332;2023-07-13T19:16:03;27.41;36.96
68842;SHT35;55849;48.482;2.332;2023-07-13T19:19:11;27.39;37.73